Airfield :
LOGIN :

Register | Disclaimer

   EN    FR    IT 

 










Legend :    VFR   Marginal VFR   IFR   Intensive IFR   Very Intensive IFR
Visi :
Ceiling :
>= 8 km
>= 3000ft
5 to 8 km
1000 to 3000 ft
1500m to 5 km
500 to 1000 ft
800 to 1500m
200 to 500 ft
< 800m
< 200 ft
Symbols :   Thunderstorms  Fog  Heavy snow  Heavy precipitations  Wind > 20 kt
SIGMETs :     Misc.  Thunderstorms  Icing  Turbulence  Mountain Waves  Volcanic Ashes







- Airport Elevation : 665 ft
- IATA code : NOC


EIKN - Connaught / Knock- Ireland West

CURRENT METAR :
  • 151700Z 14007KT 110V180 9999 FEW022 10/05 Q1012 NOSIG

EXPIRED METARs :
  • 151630Z 15007KT 110V180 9999 FEW022 11/05 Q1012 NOSIG
  • 151600Z 15009KT 110V190 9999 FEW022 11/04 Q1013 NOSIG
  • 151530Z 14009KT 100V180 9999 FEW022 12/06 Q1013 NOSIG
  • 151500Z 15008KT 110V190 9999 FEW022 SCT250 12/05 Q1013 NOSIG
  • 151430Z 14007KT 090V180 9999 FEW022 SCT250 12/05 Q1013 NOSIG

TAF TAF EIKN
Valid from the 15 at 12:00 until the 16 at 12:00 UTC


151100Z 1512/1612 15007KT 9999 FEW020 SCT040
BECMG 1520/1523 15013KT
BECMG 1604/1607 17015KT 4000 -RADZ BKN008
TEMPO 1606/1610 18015G25KT
BECMG 1609/1612 20012KT
TEMPO 1609/1612 2000 -RA BKN004
No reported NOTAMs for that airfield.



MET'MAP, your aeronautical weather chart ! - Copyright ORBIFLY December 2007 - Disclaimer

ORBIFLY MET'MAP TEAM :

Programming & Development : Alexandra Zaïnal
Concept & Development : Baudouin d'Aumeries
Co-Development & Prog : Marc-Olivier Méhu
Technical & hardware support : Manuel Goepfert

Contact : metmap@orbifly.com




SOURCES & CREDITS :

   NOAA